sensor_id;sensor_type;location;lat;lon;timestamp;pressure;altitude;pressure_sealevel;temperature;humidity
48053;BME280;33824;51.600;5.718;2023-03-22T00:02:10;100834.50;;;10.66;92.49
48053;BME280;33824;51.600;5.718;2023-03-22T00:04:36;100827.50;;;10.65;91.89
48053;BME280;33824;51.600;5.718;2023-03-22T00:07:01;100830.50;;;10.62;92.19
48053;BME280;33824;51.600;5.718;2023-03-22T00:09:27;100828.03;;;10.60;92.12
48053;BME280;33824;51.600;5.718;2023-03-22T00:11:53;100825.06;;;10.55;92.34
48053;BME280;33824;51.600;5.718;2023-03-22T00:14:19;100824.41;;;10.53;92.13
48053;BME280;33824;51.600;5.718;2023-03-22T00:16:44;100825.41;;;10.52;92.19
48053;BME280;33824;51.600;5.718;2023-03-22T00:19:14;100821.25;;;10.49;92.22
48053;BME280;33824;51.600;5.718;2023-03-22T00:21:40;100823.25;;;10.47;92.27
48053;BME280;33824;51.600;5.718;2023-03-22T00:24:06;100819.94;;;10.45;92.10
48053;BME280;33824;51.600;5.718;2023-03-22T00:26:31;100813.09;;;10.43;92.01
48053;BME280;33824;51.600;5.718;2023-03-22T00:28:57;100809.13;;;10.39;91.87
48053;BME280;33824;51.600;5.718;2023-03-22T00:31:22;100808.84;;;10.34;91.62
48053;BME280;33824;51.600;5.718;2023-03-22T00:33:48;100794.19;;;10.30;92.38
48053;BME280;33824;51.600;5.718;2023-03-22T00:36:13;100802.34;;;10.28;92.02
48053;BME280;33824;51.600;5.718;2023-03-22T00:38:39;100787.72;;;10.24;92.38
48053;BME280;33824;51.600;5.718;2023-03-22T00:41:06;100796.72;;;10.23;92.44
48053;BME280;33824;51.600;5.718;2023-03-22T00:43:33;100781.53;;;10.24;92.50
48053;BME280;33824;51.600;5.718;2023-03-22T00:45:58;100781.53;;;10.24;92.77
48053;BME280;33824;51.600;5.718;2023-03-22T00:48:24;100778.06;;;10.23;92.58
48053;BME280;33824;51.600;5.718;2023-03-22T00:50:50;100777.03;;;10.24;92.84
48053;BME280;33824;51.600;5.718;2023-03-22T00:53:16;100775.88;;;10.27;92.72
48053;BME280;33824;51.600;5.718;2023-03-22T00:55:41;100760.38;;;10.30;93.02
48053;BME280;33824;51.600;5.718;2023-03-22T00:58:07;100761.03;;;10.32;93.15
48053;BME280;33824;51.600;5.718;2023-03-22T01:00:32;100759.88;;;10.35;93.72
48053;BME280;33824;51.600;5.718;2023-03-22T01:03:00;100762.19;;;10.38;94.07
48053;BME280;33824;51.600;5.718;2023-03-22T01:05:33;100750.50;;;10.39;93.87
48053;BME280;33824;51.600;5.718;2023-03-22T01:08:03;100743.16;;;10.41;93.78
48053;BME280;33824;51.600;5.718;2023-03-22T01:10:36;100749.81;;;10.45;93.56
48053;BME280;33824;51.600;5.718;2023-03-22T01:13:03;100739.25;;;10.51;93.51
48053;BME280;33824;51.600;5.718;2023-03-22T01:15:29;100740.94;;;10.52;93.45
48053;BME280;33824;51.600;5.718;2023-03-22T01:17:55;100747.72;;;10.55;93.44
48053;BME280;33824;51.600;5.718;2023-03-22T01:20:24;100731.75;;;10.55;93.53
48053;BME280;33824;51.600;5.718;2023-03-22T01:22:50;100730.38;;;10.59;93.54
48053;BME280;33824;51.600;5.718;2023-03-22T01:25:15;100733.03;;;10.59;93.67
48053;BME280;33824;51.600;5.718;2023-03-22T01:27:41;100729.03;;;10.63;93.58
48053;BME280;33824;51.600;5.718;2023-03-22T01:30:07;100717.53;;;10.63;93.62
48053;BME280;33824;51.600;5.718;2023-03-22T01:32:35;100712.84;;;10.65;93.69
48053;BME280;33824;51.600;5.718;2023-03-22T01:35:00;100703.84;;;10.66;93.63
48053;BME280;33824;51.600;5.718;2023-03-22T01:37:26;100705.97;;;10.70;93.79
48053;BME280;33824;51.600;5.718;2023-03-22T01:39:53;100692.00;;;10.68;93.89
48053;BME280;33824;51.600;5.718;2023-03-22T01:42:20;100679.97;;;10.72;94.05
48053;BME280;33824;51.600;5.718;2023-03-22T01:47:46;100664.91;;;10.79;94.52
48053;BME280;33824;51.600;5.718;2023-03-22T01:50:14;100666.00;;;10.85;94.62
48053;BME280;33824;51.600;5.718;2023-03-22T01:52:41;100665.94;;;10.93;95.01
48053;BME280;33824;51.600;5.718;2023-03-22T01:55:07;100666.25;;;10.98;94.77
48053;BME280;33824;51.600;5.718;2023-03-22T01:57:34;100653.84;;;11.05;94.78
48053;BME280;33824;51.600;5.718;2023-03-22T02:00:04;100656.50;;;11.05;94.94
48053;BME280;33824;51.600;5.718;2023-03-22T02:02:33;100647.91;;;10.80;95.46
48053;BME280;33824;51.600;5.718;2023-03-22T02:04:59;100644.72;;;10.99;95.80
48053;BME280;33824;51.600;5.718;2023-03-22T02:07:26;100644.44;;;11.09;95.88
48053;BME280;33824;51.600;5.718;2023-03-22T02:09:52;100635.53;;;11.17;95.39
48053;BME280;33824;51.600;5.718;2023-03-22T02:15:39;100633.31;;;11.05;95.87
48053;BME280;33824;51.600;5.718;2023-03-22T02:26:52;100619.69;;;11.15;95.75
48053;BME280;33824;51.600;5.718;2023-03-22T02:29:44;100616.03;;;11.16;95.48
48053;BME280;33824;51.600;5.718;2023-03-22T02:32:37;100617.59;;;11.11;95.90
48053;BME280;33824;51.600;5.718;2023-03-22T02:35:32;100618.97;;;11.06;96.23
48053;BME280;33824;51.600;5.718;2023-03-22T02:44:07;100604.13;;;11.04;97.11
48053;BME280;33824;51.600;5.718;2023-03-22T02:46:43;100610.31;;;11.04;97.40
48053;BME280;33824;51.600;5.718;2023-03-22T02:49:39;100596.50;;;11.01;97.07
48053;BME280;33824;51.600;5.718;2023-03-22T02:52:14;100600.09;;;11.08;97.08
48053;BME280;33824;51.600;5.718;2023-03-22T02:54:59;100591.63;;;11.04;97.08
48053;BME280;33824;51.600;5.718;2023-03-22T02:57:56;100605.34;;;11.01;97.12
48053;BME280;33824;51.600;5.718;2023-03-22T03:00:24;100603.06;;;11.13;97.07
48053;BME280;33824;51.600;5.718;2023-03-22T03:02:59;100608.38;;;11.13;97.06
48053;BME280;33824;51.600;5.718;2023-03-22T03:05:29;100598.81;;;11.19;96.76
48053;BME280;33824;51.600;5.718;2023-03-22T03:07:59;100594.13;;;11.21;96.87
48053;BME280;33824;51.600;5.718;2023-03-22T03:10:27;100586.59;;;11.24;96.91
48053;BME280;33824;51.600;5.718;2023-03-22T03:12:53;100595.41;;;11.25;96.94
48053;BME280;33824;51.600;5.718;2023-03-22T03:15:20;100589.09;;;11.26;96.73
48053;BME280;33824;51.600;5.718;2023-03-22T03:21:03;100589.16;;;11.18;95.95
48053;BME280;33824;51.600;5.718;2023-03-22T03:23:54;100586.50;;;11.18;96.42
48053;BME280;33824;51.600;5.718;2023-03-22T03:26:34;100595.22;;;11.12;96.12
48053;BME280;33824;51.600;5.718;2023-03-22T03:31:49;100584.28;;;11.06;96.30
48053;BME280;33824;51.600;5.718;2023-03-22T03:34:24;100587.41;;;11.10;96.09
48053;BME280;33824;51.600;5.718;2023-03-22T03:36:56;100580.03;;;11.12;96.13
48053;BME280;33824;51.600;5.718;2023-03-22T03:39:25;100575.63;;;11.19;95.86
48053;BME280;33824;51.600;5.718;2023-03-22T03:41:54;100577.28;;;11.20;95.89
48053;BME280;33824;51.600;5.718;2023-03-22T03:44:20;100570.13;;;11.21;95.89
48053;BME280;33824;51.600;5.718;2023-03-22T03:46:47;100571.94;;;11.20;95.65
48053;BME280;33824;51.600;5.718;2023-03-22T03:49:15;100575.81;;;11.18;95.78
48053;BME280;33824;51.600;5.718;2023-03-22T03:51:51;100580.03;;;11.12;95.55
48053;BME280;33824;51.600;5.718;2023-03-22T03:54:18;100581.16;;;11.18;95.72
48053;BME280;33824;51.600;5.718;2023-03-22T03:56:43;100580.13;;;11.19;95.85
48053;BME280;33824;51.600;5.718;2023-03-22T03:59:13;100582.78;;;11.19;95.47
48053;BME280;33824;51.600;5.718;2023-03-22T04:01:43;100584.00;;;11.16;95.18
48053;BME280;33824;51.600;5.718;2023-03-22T04:04:19;100575.38;;;11.14;95.10
48053;BME280;33824;51.600;5.718;2023-03-22T04:06:54;100586.97;;;11.06;94.97
48053;BME280;33824;51.600;5.718;2023-03-22T04:09:26;100582.16;;;11.02;95.15
48053;BME280;33824;51.600;5.718;2023-03-22T04:11:53;100588.97;;;11.04;95.31
48053;BME280;33824;51.600;5.718;2023-03-22T04:14:19;100582.16;;;11.02;95.43
48053;BME280;33824;51.600;5.718;2023-03-22T04:16:45;100585.00;;;11.00;95.38
48053;BME280;33824;51.600;5.718;2023-03-22T04:19:11;100567.53;;;10.98;95.22
48053;BME280;33824;51.600;5.718;2023-03-22T04:21:37;100571.19;;;10.97;95.29
48053;BME280;33824;51.600;5.718;2023-03-22T04:24:03;100568.91;;;10.94;95.23
48053;BME280;33824;51.600;5.718;2023-03-22T04:26:29;100565.94;;;10.89;95.23
48053;BME280;33824;51.600;5.718;2023-03-22T04:28:55;100561.81;;;10.86;95.51
48053;BME280;33824;51.600;5.718;2023-03-22T04:31:23;100568.16;;;10.85;95.80
48053;BME280;33824;51.600;5.718;2023-03-22T04:33:49;100562.81;;;10.85;95.89
48053;BME280;33824;51.600;5.718;2023-03-22T04:36:23;100553.72;;;10.80;95.32
48053;BME280;33824;51.600;5.718;2023-03-22T04:38:50;100554.81;;;10.85;95.70
48053;BME280;33824;51.600;5.718;2023-03-22T04:41:16;100552.16;;;10.85;95.40
48053;BME280;33824;51.600;5.718;2023-03-22T04:43:42;100548.19;;;10.81;95.60
48053;BME280;33824;51.600;5.718;2023-03-22T04:46:12;100551.22;;;10.78;95.35
48053;BME280;33824;51.600;5.718;2023-03-22T04:48:40;100550.59;;;10.76;95.61
48053;BME280;33824;51.600;5.718;2023-03-22T04:51:09;100547.63;;;10.71;95.35
48053;BME280;33824;51.600;5.718;2023-03-22T04:53:36;100552.81;;;10.73;95.91
48053;BME280;33824;51.600;5.718;2023-03-22T04:56:12;100545.22;;;10.62;95.47
48053;BME280;33824;51.600;5.718;2023-03-22T04:58:39;100543.03;;;10.65;95.99
48053;BME280;33824;51.600;5.718;2023-03-22T05:01:06;100553.72;;;10.65;96.15
48053;BME280;33824;51.600;5.718;2023-03-22T05:03:32;100544.69;;;10.66;96.19
48053;BME280;33824;51.600;5.718;2023-03-22T05:05:59;100542.00;;;10.66;96.00
48053;BME280;33824;51.600;5.718;2023-03-22T05:08:27;100541.84;;;10.68;95.93
48053;BME280;33824;51.600;5.718;2023-03-22T05:10:54;100545.13;;;10.70;95.81
48053;BME280;33824;51.600;5.718;2023-03-22T05:13:22;100545.13;;;10.70;95.61
48053;BME280;33824;51.600;5.718;2023-03-22T05:15:47;100546.97;;;10.69;95.84
48053;BME280;33824;51.600;5.718;2023-03-22T05:18:14;100547.81;;;10.70;95.72
48053;BME280;33824;51.600;5.718;2023-03-22T05:20:41;100547.47;;;10.73;95.59
48053;BME280;33824;51.600;5.718;2023-03-22T05:23:07;100540.09;;;10.75;95.66
48053;BME280;33824;51.600;5.718;2023-03-22T05:25:35;100541.94;;;10.74;95.42
48053;BME280;33824;51.600;5.718;2023-03-22T05:28:01;100540.94;;;10.75;95.23
48053;BME280;33824;51.600;5.718;2023-03-22T05:30:27;100542.75;;;10.75;95.23
48053;BME280;33824;51.600;5.718;2023-03-22T05:32:57;100541.63;;;10.69;94.98
48053;BME280;33824;51.600;5.718;2023-03-22T05:35:25;100539.25;;;10.74;94.91
48053;BME280;33824;51.600;5.718;2023-03-22T05:37:51;100533.09;;;10.74;95.00
48053;BME280;33824;51.600;5.718;2023-03-22T05:40:17;100535.78;;;10.74;94.54
48053;BME280;33824;51.600;5.718;2023-03-22T05:42:43;100538.25;;;10.75;94.39
48053;BME280;33824;51.600;5.718;2023-03-22T05:45:12;100548.72;;;10.77;94.34
48053;BME280;33824;51.600;5.718;2023-03-22T05:47:38;100543.06;;;10.80;94.05
48053;BME280;33824;51.600;5.718;2023-03-22T05:50:10;100546.56;;;10.80;93.69
48053;BME280;33824;51.600;5.718;2023-03-22T05:52:37;100541.03;;;10.82;93.75
48053;BME280;33824;51.600;5.718;2023-03-22T05:55:03;100524.31;;;10.88;93.49
48053;BME280;33824;51.600;5.718;2023-03-22T05:57:29;100529.97;;;10.85;93.28
48053;BME280;33824;51.600;5.718;2023-03-22T05:59:58;100522.72;;;10.79;93.19
48053;BME280;33824;51.600;5.718;2023-03-22T06:02:24;100535.69;;;10.82;93.46
48053;BME280;33824;51.600;5.718;2023-03-22T06:04:50;100536.53;;;10.82;93.33
48053;BME280;33824;51.600;5.718;2023-03-22T06:07:17;100542.47;;;10.84;93.28
48053;BME280;33824;51.600;5.718;2023-03-22T06:09:43;100544.16;;;10.85;92.99
48053;BME280;33824;51.600;5.718;2023-03-22T06:12:09;100542.97;;;10.88;93.29
48053;BME280;33824;51.600;5.718;2023-03-22T06:14:34;100540.78;;;10.91;93.05
48053;BME280;33824;51.600;5.718;2023-03-22T06:17:00;100536.22;;;10.92;93.23
48053;BME280;33824;51.600;5.718;2023-03-22T06:19:25;100529.53;;;10.96;93.02
48053;BME280;33824;51.600;5.718;2023-03-22T06:21:53;100533.69;;;10.98;92.69
48053;BME280;33824;51.600;5.718;2023-03-22T06:24:18;100539.47;;;11.02;92.67
48053;BME280;33824;51.600;5.718;2023-03-22T06:26:44;100526.31;;;11.00;92.67
48053;BME280;33824;51.600;5.718;2023-03-22T06:29:10;100534.31;;;11.00;92.80
48053;BME280;33824;51.600;5.718;2023-03-22T06:31:36;100541.31;;;11.01;92.55
48053;BME280;33824;51.600;5.718;2023-03-22T06:34:04;100519.88;;;11.10;92.57
48053;BME280;33824;51.600;5.718;2023-03-22T06:36:32;100529.88;;;11.07;92.79
48053;BME280;33824;51.600;5.718;2023-03-22T06:38:57;100529.34;;;11.12;92.63
48053;BME280;33824;51.600;5.718;2023-03-22T06:41:25;100527.41;;;11.21;92.35
48053;BME280;33824;51.600;5.718;2023-03-22T06:43:51;100529.22;;;11.35;92.08
48053;BME280;33824;51.600;5.718;2023-03-22T06:46:16;100522.34;;;11.40;91.52
48053;BME280;33824;51.600;5.718;2023-03-22T06:48:42;100529.41;;;11.48;91.69
48053;BME280;33824;51.600;5.718;2023-03-22T06:51:08;100531.31;;;11.54;91.46
48053;BME280;33824;51.600;5.718;2023-03-22T06:53:34;100532.22;;;11.61;91.18
48053;BME280;33824;51.600;5.718;2023-03-22T06:55:59;100525.88;;;11.62;91.09
48053;BME280;33824;51.600;5.718;2023-03-22T06:58:25;100525.13;;;11.53;90.23
48053;BME280;33824;51.600;5.718;2023-03-22T07:00:51;100529.75;;;11.60;90.96
48053;BME280;33824;51.600;5.718;2023-03-22T07:03:17;100529.81;;;11.66;90.29
48053;BME280;33824;51.600;5.718;2023-03-22T07:05:42;100531.00;;;11.78;90.19
48053;BME280;33824;51.600;5.718;2023-03-22T07:08:08;100532.47;;;11.81;90.03
48053;BME280;33824;51.600;5.718;2023-03-22T07:10:34;100529.06;;;11.87;89.49
48053;BME280;33824;51.600;5.718;2023-03-22T07:12:59;100534.06;;;11.96;89.21
48053;BME280;33824;51.600;5.718;2023-03-22T07:15:30;100526.50;;;12.00;88.74
48053;BME280;33824;51.600;5.718;2023-03-22T07:17:58;100539.47;;;12.03;88.49
48053;BME280;33824;51.600;5.718;2023-03-22T07:20:25;100520.06;;;12.16;88.16
48053;BME280;33824;51.600;5.718;2023-03-22T07:22:51;100532.78;;;12.35;88.05
48053;BME280;33824;51.600;5.718;2023-03-22T07:25:17;100517.19;;;12.38;87.53
48053;BME280;33824;51.600;5.718;2023-03-22T07:27:42;100519.28;;;12.43;87.34
48053;BME280;33824;51.600;5.718;2023-03-22T07:30:08;100531.13;;;12.34;86.45
48053;BME280;33824;51.600;5.718;2023-03-22T07:32:34;100519.38;;;12.28;86.72
48053;BME280;33824;51.600;5.718;2023-03-22T07:34:59;100529.22;;;12.28;86.79
48053;BME280;33824;51.600;5.718;2023-03-22T07:37:25;100528.59;;;12.26;86.49
48053;BME280;33824;51.600;5.718;2023-03-22T07:39:51;100541.59;;;12.29;86.21
48053;BME280;33824;51.600;5.718;2023-03-22T07:42:16;100528.41;;;12.27;86.28
48053;BME280;33824;51.600;5.718;2023-03-22T07:44:42;100520.44;;;12.34;86.11
48053;BME280;33824;51.600;5.718;2023-03-22T07:47:07;100533.47;;;12.43;85.78
48053;BME280;33824;51.600;5.718;2023-03-22T07:49:33;100538.44;;;12.46;85.53
48053;BME280;33824;51.600;5.718;2023-03-22T07:51:58;100527.22;;;12.58;85.29
48053;BME280;33824;51.600;5.718;2023-03-22T07:54:24;100535.13;;;12.44;84.04
48053;BME280;33824;51.600;5.718;2023-03-22T07:56:50;100542.97;;;12.46;85.21
48053;BME280;33824;51.600;5.718;2023-03-22T07:59:15;100532.16;;;12.61;84.40
48053;BME280;33824;51.600;5.718;2023-03-22T08:01:42;100536.69;;;12.60;84.00
48053;BME280;33824;51.600;5.718;2023-03-22T08:04:08;100532.81;;;12.63;84.66
48053;BME280;33824;51.600;5.718;2023-03-22T08:06:34;100540.09;;;12.75;83.33
48053;BME280;33824;51.600;5.718;2023-03-22T08:09:04;100536.09;;;12.65;82.87
48053;BME280;33824;51.600;5.718;2023-03-22T08:11:29;100534.81;;;12.82;82.52
48053;BME280;33824;51.600;5.718;2023-03-22T08:13:55;100527.19;;;12.85;82.30
48053;BME280;33824;51.600;5.718;2023-03-22T08:16:21;100539.59;;;12.93;81.68
48053;BME280;33824;51.600;5.718;2023-03-22T08:18:47;100531.91;;;12.83;81.29
48053;BME280;33824;51.600;5.718;2023-03-22T08:21:12;100534.25;;;12.93;81.97
48053;BME280;33824;51.600;5.718;2023-03-22T08:23:38;100541.63;;;12.91;81.03
48053;BME280;33824;51.600;5.718;2023-03-22T08:26:04;100529.06;;;12.85;81.02
48053;BME280;33824;51.600;5.718;2023-03-22T08:28:30;100545.56;;;12.95;80.95
48053;BME280;33824;51.600;5.718;2023-03-22T08:30:55;100538.34;;;12.89;80.26
48053;BME280;33824;51.600;5.718;2023-03-22T08:33:21;100545.56;;;12.95;79.73
48053;BME280;33824;51.600;5.718;2023-03-22T08:35:48;100544.63;;;13.09;79.86
48053;BME280;33824;51.600;5.718;2023-03-22T08:38:14;100540.13;;;13.10;79.90
48053;BME280;33824;51.600;5.718;2023-03-22T08:40:40;100535.13;;;13.34;80.03
48053;BME280;33824;51.600;5.718;2023-03-22T08:43:05;100531.97;;;13.24;79.07
48053;BME280;33824;51.600;5.718;2023-03-22T08:45:31;100524.44;;;13.48;79.26
48053;BME280;33824;51.600;5.718;2023-03-22T08:47:57;100523.72;;;13.73;79.00
48053;BME280;33824;51.600;5.718;2023-03-22T08:50:24;100516.91;;;13.77;77.82
48053;BME280;33824;51.600;5.718;2023-03-22T08:52:50;100512.19;;;13.79;77.60
48053;BME280;33824;51.600;5.718;2023-03-22T08:55:15;100520.41;;;13.65;76.38
48053;BME280;33824;51.600;5.718;2023-03-22T08:57:42;100516.91;;;13.71;76.48
48053;BME280;33824;51.600;5.718;2023-03-22T09:00:15;100513.44;;;13.83;76.78
48053;BME280;33824;51.600;5.718;2023-03-22T09:02:42;100514.69;;;13.81;75.60
48053;BME280;33824;51.600;5.718;2023-03-22T09:05:08;100509.31;;;13.87;75.14
48053;BME280;33824;51.600;5.718;2023-03-22T09:07:34;100516.72;;;13.85;74.77
48053;BME280;33824;51.600;5.718;2023-03-22T09:10:00;100520.25;;;13.92;74.54
48053;BME280;33824;51.600;5.718;2023-03-22T09:12:26;100510.75;;;13.83;73.51
48053;BME280;33824;51.600;5.718;2023-03-22T09:14:51;100504.97;;;13.86;74.17
48053;BME280;33824;51.600;5.718;2023-03-22T09:17:18;100513.03;;;13.93;74.53
48053;BME280;33824;51.600;5.718;2023-03-22T09:19:43;100514.28;;;13.97;74.69
48053;BME280;33824;51.600;5.718;2023-03-22T09:22:10;100498.00;;;14.12;73.38
48053;BME280;33824;51.600;5.718;2023-03-22T09:24:36;100500.69;;;14.05;73.70
48053;BME280;33824;51.600;5.718;2023-03-22T09:27:01;100486.47;;;14.18;72.63
48053;BME280;33824;51.600;5.718;2023-03-22T09:29:27;100483.16;;;14.16;72.83
48053;BME280;33824;51.600;5.718;2023-03-22T09:31:53;100495.31;;;14.12;71.60
48053;BME280;33824;51.600;5.718;2023-03-22T09:34:18;100488.50;;;14.16;71.58
48053;BME280;33824;51.600;5.718;2023-03-22T09:36:44;100502.16;;;14.47;72.05
48053;BME280;33824;51.600;5.718;2023-03-22T09:39:10;100495.75;;;14.68;71.99
48053;BME280;33824;51.600;5.718;2023-03-22T09:41:50;100492.47;;;14.53;69.96
48053;BME280;33824;51.600;5.718;2023-03-22T09:44:25;100496.16;;;14.58;70.24
48053;BME280;33824;51.600;5.718;2023-03-22T09:46:54;100491.84;;;14.51;70.08
48053;BME280;33824;51.600;5.718;2023-03-22T09:49:23;100492.25;;;14.54;70.29
48053;BME280;33824;51.600;5.718;2023-03-22T09:51:53;100485.47;;;14.45;69.90
48053;BME280;33824;51.600;5.718;2023-03-22T09:54:33;100478.44;;;14.11;69.45
48053;BME280;33824;51.600;5.718;2023-03-22T09:57:04;100487.69;;;14.28;70.25
48053;BME280;33824;51.600;5.718;2023-03-22T10:00:02;100487.50;;;14.04;69.81
48053;BME280;33824;51.600;5.718;2023-03-22T10:05:30;100484.19;;;13.88;70.78
48053;BME280;33824;51.600;5.718;2023-03-22T10:08:03;100488.94;;;14.00;71.50
48053;BME280;33824;51.600;5.718;2023-03-22T10:10:29;100505.03;;;14.00;70.83
48053;BME280;33824;51.600;5.718;2023-03-22T10:13:04;100489.31;;;13.90;70.44
48053;BME280;33824;51.600;5.718;2023-03-22T10:15:41;100488.06;;;13.86;70.40
48053;BME280;33824;51.600;5.718;2023-03-22T10:18:12;100494.91;;;13.88;71.50
48053;BME280;33824;51.600;5.718;2023-03-22T10:20:44;100462.94;;;13.93;71.58
48053;BME280;33824;51.600;5.718;2023-03-22T10:23:17;100480.03;;;13.86;70.51
48053;BME280;33824;51.600;5.718;2023-03-22T10:25:44;100483.75;;;13.91;71.10
48053;BME280;33824;51.600;5.718;2023-03-22T10:28:27;100492.41;;;13.80;70.41
48053;BME280;33824;51.600;5.718;2023-03-22T10:30:55;100484.16;;;13.82;71.44
48053;BME280;33824;51.600;5.718;2023-03-22T10:33:41;100484.31;;;13.61;71.23
48053;BME280;33824;51.600;5.718;2023-03-22T10:36:15;100484.56;;;13.66;71.84
48053;BME280;33824;51.600;5.718;2023-03-22T10:38:47;100492.94;;;13.50;73.11
48053;BME280;33824;51.600;5.718;2023-03-22T10:41:15;100487.16;;;13.46;73.17
48053;BME280;33824;51.600;5.718;2023-03-22T10:43:43;100499.50;;;13.47;74.25
48053;BME280;33824;51.600;5.718;2023-03-22T10:46:22;100493.47;;;13.32;75.09
48053;BME280;33824;51.600;5.718;2023-03-22T10:48:51;100502.13;;;13.27;75.75
48053;BME280;33824;51.600;5.718;2023-03-22T10:54:25;100484.88;;;13.02;80.15
48053;BME280;33824;51.600;5.718;2023-03-22T10:56:51;100501.34;;;12.99;80.93
48053;BME280;33824;51.600;5.718;2023-03-22T10:59:46;100501.69;;;12.55;81.69
48053;BME280;33824;51.600;5.718;2023-03-22T11:02:21;100507.69;;;12.64;83.18
48053;BME280;33824;51.600;5.718;2023-03-22T11:04:53;100515.72;;;12.64;83.51
48053;BME280;33824;51.600;5.718;2023-03-22T11:07:41;100503.81;;;12.66;84.35
48053;BME280;33824;51.600;5.718;2023-03-22T11:12:40;100516.53;;;12.92;84.06
48053;BME280;33824;51.600;5.718;2023-03-22T11:15:18;100518.84;;;13.02;83.90
48053;BME280;33824;51.600;5.718;2023-03-22T11:17:45;100506.19;;;13.17;83.65
48053;BME280;33824;51.600;5.718;2023-03-22T11:20:16;100502.06;;;13.14;83.79
48053;BME280;33824;51.600;5.718;2023-03-22T11:22:44;100481.66;;;13.13;84.07
48053;BME280;33824;51.600;5.718;2023-03-22T11:27:52;100503.72;;;13.15;84.99
48053;BME280;33824;51.600;5.718;2023-03-22T11:30:21;100503.06;;;13.13;85.20
48053;BME280;33824;51.600;5.718;2023-03-22T11:32:48;100523.81;;;13.05;85.17
48053;BME280;33824;51.600;5.718;2023-03-22T11:35:20;100503.72;;;12.81;85.18
48053;BME280;33824;51.600;5.718;2023-03-22T11:37:49;100507.84;;;12.90;85.29
48053;BME280;33824;51.600;5.718;2023-03-22T11:42:43;100501.59;;;13.04;86.04
48053;BME280;33824;51.600;5.718;2023-03-22T11:45:14;100498.31;;;13.09;85.51
48053;BME280;33824;51.600;5.718;2023-03-22T11:47:41;100508.78;;;13.04;85.97
48053;BME280;33824;51.600;5.718;2023-03-22T11:53:11;100509.59;;;13.04;85.23
48053;BME280;33824;51.600;5.718;2023-03-22T11:55:38;100506.59;;;13.14;85.08
48053;BME280;33824;51.600;5.718;2023-03-22T11:58:04;100494.13;;;12.99;84.86
48053;BME280;33824;51.600;5.718;2023-03-22T12:00:33;100506.50;;;13.01;85.76
48053;BME280;33824;51.600;5.718;2023-03-22T12:03:06;100495.69;;;13.15;84.87
48053;BME280;33824;51.600;5.718;2023-03-22T12:05:37;100482.75;;;13.25;83.52
48053;BME280;33824;51.600;5.718;2023-03-22T12:08:12;100489.34;;;13.29;84.00
48053;BME280;33824;51.600;5.718;2023-03-22T12:10:43;100487.13;;;13.39;83.30
48053;BME280;33824;51.600;5.718;2023-03-22T12:13:16;100476.88;;;13.50;83.54
48053;BME280;33824;51.600;5.718;2023-03-22T12:15:53;100477.66;;;13.43;82.76
48053;BME280;33824;51.600;5.718;2023-03-22T12:18:28;100468.78;;;13.36;82.58
48053;BME280;33824;51.600;5.718;2023-03-22T12:20:57;100455.47;;;13.56;82.47
48053;BME280;33824;51.600;5.718;2023-03-22T12:23:28;100476.28;;;13.54;81.79
48053;BME280;33824;51.600;5.718;2023-03-22T12:25:58;100469.50;;;13.65;80.91
48053;BME280;33824;51.600;5.718;2023-03-22T12:31:05;100460.84;;;13.69;82.06
48053;BME280;33824;51.600;5.718;2023-03-22T12:33:50;100477.72;;;13.57;79.86
48053;BME280;33824;51.600;5.718;2023-03-22T12:36:21;100471.94;;;13.60;80.20
48053;BME280;33824;51.600;5.718;2023-03-22T12:38:55;100471.13;;;13.59;80.28
48053;BME280;33824;51.600;5.718;2023-03-22T12:41:34;100471.69;;;13.41;79.68
48053;BME280;33824;51.600;5.718;2023-03-22T12:44:03;100463.25;;;13.51;80.78
48053;BME280;33824;51.600;5.718;2023-03-22T12:49:25;100467.38;;;13.47;79.70
48053;BME280;33824;51.600;5.718;2023-03-22T12:51:54;100465.09;;;13.44;80.05
48053;BME280;33824;51.600;5.718;2023-03-22T12:54:24;100465.56;;;13.67;80.96
48053;BME280;33824;51.600;5.718;2023-03-22T12:56:51;100460.03;;;13.69;80.19
48053;BME280;33824;51.600;5.718;2023-03-22T12:59:25;100471.09;;;13.46;80.37
48053;BME280;33824;51.600;5.718;2023-03-22T13:02:00;100478.72;;;13.42;80.77
48053;BME280;33824;51.600;5.718;2023-03-22T13:07:09;100465.88;;;12.90;82.08
48053;BME280;33824;51.600;5.718;2023-03-22T13:09:37;100473.06;;;13.24;80.47
48053;BME280;33824;51.600;5.718;2023-03-22T13:17:33;100468.50;;;13.12;80.34
48053;BME280;33824;51.600;5.718;2023-03-22T13:27:41;100468.38;;;13.39;79.76
48053;BME280;33824;51.600;5.718;2023-03-22T13:33:00;100465.75;;;13.59;80.34
48053;BME280;33824;51.600;5.718;2023-03-22T13:35:44;100463.44;;;13.36;79.19
48053;BME280;33824;51.600;5.718;2023-03-22T13:38:32;100453.28;;;13.25;79.67
48053;BME280;33824;51.600;5.718;2023-03-22T13:43:48;100467.78;;;13.44;79.53
48053;BME280;33824;51.600;5.718;2023-03-22T13:59:19;100462.44;;;13.51;79.35
48053;BME280;33824;51.600;5.718;2023-03-22T14:01:50;100472.34;;;13.50;79.54
48053;BME280;33824;51.600;5.718;2023-03-22T14:04:22;100458.13;;;13.63;79.80
48053;BME280;33824;51.600;5.718;2023-03-22T14:06:56;100462.66;;;13.62;79.62
48053;BME280;33824;51.600;5.718;2023-03-22T14:09:30;100458.13;;;13.63;79.89
48053;BME280;33824;51.600;5.718;2023-03-22T14:12:29;100456.22;;;13.43;79.95
48053;BME280;33824;51.600;5.718;2023-03-22T14:14:59;100451.34;;;13.54;80.30
48053;BME280;33824;51.600;5.718;2023-03-22T14:17:45;100452.78;;;13.56;80.38
48053;BME280;33824;51.600;5.718;2023-03-22T14:20:17;100450.28;;;13.55;80.69
48053;BME280;33824;51.600;5.718;2023-03-22T14:22:53;100452.34;;;13.46;80.70
48053;BME280;33824;51.600;5.718;2023-03-22T14:25:25;100448.06;;;13.58;81.05